Weather at Allama Iqbal International Airport

Public forecast

Using degrees Celsius for public forecast. Weather courtesy of forecast.io.

Current aviation weather report (METAR) for Allama Iqbal International Airport

Report is more than 6 hours old.

2022/11/14 15:25 (retrieved 2 years ago)

OPLA 141525Z 04008KT 5000 FU FEW040 SCT100 17/13 Q1017 NOSIG RMK QFE991 A3003

Aviation forecast (TAF) for Allama Iqbal International Airport

Forecast is more than 12 hours old.

2023/02/22 18:19 (retrieved 1 year ago)

TAF OPLA 221700Z 2218/2324 33004KT 4000 FU NSC TX28/2310Z TN13/2301Z TEMPO 2301/2304 00000KT 2000 BR NSC FM230600 31006KT 5000 HZ NSC FM231600 36003KT 4000 FU SCT100